sensor_id;sensor_type;location;lat;lon;timestamp;temperature;humidity
43673;DHT22;41723;49.326;8.430;2022-11-15T00:01:17;11.00;99.90
43673;DHT22;41723;49.326;8.430;2022-11-15T00:04:01;11.10;99.90
43673;DHT22;41723;49.326;8.430;2022-11-15T00:06:46;11.00;99.90
43673;DHT22;41723;49.326;8.430;2022-11-15T00:09:30;11.00;99.90
43673;DHT22;41723;49.326;8.430;2022-11-15T00:12:14;11.00;99.90
43673;DHT22;41723;49.326;8.430;2022-11-15T00:14:59;11.00;99.90
43673;DHT22;41723;49.326;8.430;2022-11-15T00:17:43;11.00;99.90
43673;DHT22;41723;49.326;8.430;2022-11-15T00:20:27;11.00;99.90
43673;DHT22;41723;49.326;8.430;2022-11-15T00:23:11;11.00;99.90
43673;DHT22;41723;49.326;8.430;2022-11-15T00:25:58;11.00;99.90
43673;DHT22;41723;49.326;8.430;2022-11-15T00:28:43;11.00;99.90
43673;DHT22;41723;49.326;8.430;2022-11-15T00:31:28;11.00;99.90
43673;DHT22;41723;49.326;8.430;2022-11-15T00:34:12;11.00;99.90
43673;DHT22;41723;49.326;8.430;2022-11-15T00:36:56;11.00;99.90
43673;DHT22;41723;49.326;8.430;2022-11-15T00:39:41;11.10;99.90
43673;DHT22;41723;49.326;8.430;2022-11-15T00:42:25;11.10;99.90
43673;DHT22;41723;49.326;8.430;2022-11-15T00:45:09;11.10;99.90
43673;DHT22;41723;49.326;8.430;2022-11-15T00:47:54;11.10;99.90
43673;DHT22;41723;49.326;8.430;2022-11-15T00:50:38;11.00;99.90
43673;DHT22;41723;49.326;8.430;2022-11-15T00:53:22;11.10;99.90
43673;DHT22;41723;49.326;8.430;2022-11-15T00:56:06;11.00;99.90
43673;DHT22;41723;49.326;8.430;2022-11-15T00:58:52;11.00;99.90
43673;DHT22;41723;49.326;8.430;2022-11-15T01:01:36;11.10;99.90
43673;DHT22;41723;49.326;8.430;2022-11-15T01:04:20;11.10;99.90
43673;DHT22;41723;49.326;8.430;2022-11-15T01:07:04;11.10;99.90
43673;DHT22;41723;49.326;8.430;2022-11-15T01:09:48;11.10;99.90
43673;DHT22;41723;49.326;8.430;2022-11-15T01:12:33;11.00;99.90
43673;DHT22;41723;49.326;8.430;2022-11-15T01:15:17;11.00;99.90
43673;DHT22;41723;49.326;8.430;2022-11-15T01:18:01;11.00;99.90
43673;DHT22;41723;49.326;8.430;2022-11-15T01:20:45;11.00;99.90
43673;DHT22;41723;49.326;8.430;2022-11-15T01:23:30;11.00;99.90
43673;DHT22;41723;49.326;8.430;2022-11-15T01:26:14;11.00;99.90
43673;DHT22;41723;49.326;8.430;2022-11-15T01:28:59;10.90;99.90
43673;DHT22;41723;49.326;8.430;2022-11-15T01:31:43;10.90;99.90
43673;DHT22;41723;49.326;8.430;2022-11-15T01:34:28;10.90;99.90
43673;DHT22;41723;49.326;8.430;2022-11-15T01:37:12;10.90;99.90
43673;DHT22;41723;49.326;8.430;2022-11-15T01:39:56;11.00;99.90
43673;DHT22;41723;49.326;8.430;2022-11-15T01:42:40;10.90;99.90
43673;DHT22;41723;49.326;8.430;2022-11-15T01:45:25;10.90;99.90
43673;DHT22;41723;49.326;8.430;2022-11-15T01:48:10;10.90;99.90
43673;DHT22;41723;49.326;8.430;2022-11-15T01:50:54;10.90;99.90
43673;DHT22;41723;49.326;8.430;2022-11-15T01:53:39;10.90;99.90
43673;DHT22;41723;49.326;8.430;2022-11-15T01:56:25;10.90;99.90
43673;DHT22;41723;49.326;8.430;2022-11-15T01:59:11;11.00;99.90
43673;DHT22;41723;49.326;8.430;2022-11-15T02:01:56;11.00;99.90
43673;DHT22;41723;49.326;8.430;2022-11-15T02:04:41;11.00;99.90
43673;DHT22;41723;49.326;8.430;2022-11-15T02:07:26;10.90;99.90
43673;DHT22;41723;49.326;8.430;2022-11-15T02:10:18;10.90;99.90
43673;DHT22;41723;49.326;8.430;2022-11-15T02:13:03;10.90;99.90
43673;DHT22;41723;49.326;8.430;2022-11-15T02:22:04;11.00;99.90
43673;DHT22;41723;49.326;8.430;2022-11-15T02:30:34;11.00;99.90
43673;DHT22;41723;49.326;8.430;2022-11-15T02:36:07;11.00;99.90
43673;DHT22;41723;49.326;8.430;2022-11-15T02:39:03;11.00;99.90
43673;DHT22;41723;49.326;8.430;2022-11-15T02:42:02;11.00;99.90
43673;DHT22;41723;49.326;8.430;2022-11-15T02:44:47;11.00;99.90
43673;DHT22;41723;49.326;8.430;2022-11-15T02:47:34;11.00;99.90
43673;DHT22;41723;49.326;8.430;2022-11-15T02:50:20;11.00;99.90
43673;DHT22;41723;49.326;8.430;2022-11-15T02:53:05;11.00;99.90
43673;DHT22;41723;49.326;8.430;2022-11-15T02:55:49;10.90;99.90
43673;DHT22;41723;49.326;8.430;2022-11-15T03:04:30;10.90;99.90
43673;DHT22;41723;49.326;8.430;2022-11-15T03:12:59;10.80;99.90
43673;DHT22;41723;49.326;8.430;2022-11-15T03:15:49;10.80;99.90
43673;DHT22;41723;49.326;8.430;2022-11-15T03:18:36;10.90;99.90
43673;DHT22;41723;49.326;8.430;2022-11-15T03:21:22;10.90;99.90
43673;DHT22;41723;49.326;8.430;2022-11-15T03:24:08;10.90;99.90
43673;DHT22;41723;49.326;8.430;2022-11-15T03:26:53;10.90;99.90
43673;DHT22;41723;49.326;8.430;2022-11-15T03:29:39;10.90;99.90
43673;DHT22;41723;49.326;8.430;2022-11-15T03:32:25;11.00;99.90
43673;DHT22;41723;49.326;8.430;2022-11-15T03:35:15;11.00;99.90
43673;DHT22;41723;49.326;8.430;2022-11-15T03:41:05;10.90;99.90
43673;DHT22;41723;49.326;8.430;2022-11-15T03:46:40;11.00;99.90
43673;DHT22;41723;49.326;8.430;2022-11-15T03:49:27;11.00;99.90
43673;DHT22;41723;49.326;8.430;2022-11-15T03:52:13;11.00;99.90
43673;DHT22;41723;49.326;8.430;2022-11-15T03:55:01;11.00;99.90
43673;DHT22;41723;49.326;8.430;2022-11-15T03:57:49;11.00;99.90
43673;DHT22;41723;49.326;8.430;2022-11-15T04:00:34;11.00;99.90
43673;DHT22;41723;49.326;8.430;2022-11-15T04:03:18;11.10;99.90
43673;DHT22;41723;49.326;8.430;2022-11-15T04:06:03;11.10;99.90
43673;DHT22;41723;49.326;8.430;2022-11-15T04:08:47;11.10;99.90
43673;DHT22;41723;49.326;8.430;2022-11-15T04:11:31;11.10;99.90
43673;DHT22;41723;49.326;8.430;2022-11-15T04:14:15;11.10;99.90
43673;DHT22;41723;49.326;8.430;2022-11-15T04:17:00;11.10;99.90
43673;DHT22;41723;49.326;8.430;2022-11-15T04:19:44;11.10;99.90
43673;DHT22;41723;49.326;8.430;2022-11-15T04:22:47;11.10;99.90
43673;DHT22;41723;49.326;8.430;2022-11-15T04:25:51;11.10;99.90
43673;DHT22;41723;49.326;8.430;2022-11-15T04:28:36;11.10;99.90
43673;DHT22;41723;49.326;8.430;2022-11-15T04:31:40;11.10;99.90
43673;DHT22;41723;49.326;8.430;2022-11-15T04:34:24;11.00;99.90
43673;DHT22;41723;49.326;8.430;2022-11-15T04:37:09;11.00;99.90
43673;DHT22;41723;49.326;8.430;2022-11-15T04:39:56;11.00;99.90
43673;DHT22;41723;49.326;8.430;2022-11-15T04:42:41;11.10;99.90
43673;DHT22;41723;49.326;8.430;2022-11-15T04:45:25;11.10;99.90
43673;DHT22;41723;49.326;8.430;2022-11-15T04:48:10;11.20;99.90
43673;DHT22;41723;49.326;8.430;2022-11-15T04:50:54;11.10;99.90
43673;DHT22;41723;49.326;8.430;2022-11-15T04:53:38;11.10;99.90
43673;DHT22;41723;49.326;8.430;2022-11-15T04:56:22;11.10;99.90
43673;DHT22;41723;49.326;8.430;2022-11-15T04:59:07;11.20;99.90
43673;DHT22;41723;49.326;8.430;2022-11-15T05:01:51;11.20;99.90
43673;DHT22;41723;49.326;8.430;2022-11-15T05:04:35;11.10;99.90
43673;DHT22;41723;49.326;8.430;2022-11-15T05:07:19;11.10;99.90
43673;DHT22;41723;49.326;8.430;2022-11-15T05:10:04;11.10;99.90
43673;DHT22;41723;49.326;8.430;2022-11-15T05:12:48;11.10;99.90
43673;DHT22;41723;49.326;8.430;2022-11-15T05:15:32;11.00;99.90
43673;DHT22;41723;49.326;8.430;2022-11-15T05:18:16;11.10;99.90
43673;DHT22;41723;49.326;8.430;2022-11-15T05:21:08;11.10;99.90
43673;DHT22;41723;49.326;8.430;2022-11-15T05:23:52;11.00;99.90
43673;DHT22;41723;49.326;8.430;2022-11-15T05:26:37;11.10;99.90
43673;DHT22;41723;49.326;8.430;2022-11-15T05:29:21;11.10;99.90
43673;DHT22;41723;49.326;8.430;2022-11-15T05:32:05;11.10;99.90
43673;DHT22;41723;49.326;8.430;2022-11-15T05:34:49;11.00;99.90
43673;DHT22;41723;49.326;8.430;2022-11-15T05:37:34;10.90;99.90
43673;DHT22;41723;49.326;8.430;2022-11-15T05:40:18;10.90;99.90
43673;DHT22;41723;49.326;8.430;2022-11-15T05:43:02;10.90;99.90
43673;DHT22;41723;49.326;8.430;2022-11-15T05:45:47;10.90;99.90
43673;DHT22;41723;49.326;8.430;2022-11-15T05:48:32;11.00;99.90
43673;DHT22;41723;49.326;8.430;2022-11-15T05:51:18;11.10;99.90
43673;DHT22;41723;49.326;8.430;2022-11-15T05:54:03;11.10;99.90
43673;DHT22;41723;49.326;8.430;2022-11-15T05:56:48;11.10;99.90
43673;DHT22;41723;49.326;8.430;2022-11-15T05:59:32;11.10;99.90
43673;DHT22;41723;49.326;8.430;2022-11-15T06:02:17;11.10;99.90
43673;DHT22;41723;49.326;8.430;2022-11-15T06:05:02;11.10;99.90
43673;DHT22;41723;49.326;8.430;2022-11-15T06:07:46;11.10;99.90
43673;DHT22;41723;49.326;8.430;2022-11-15T06:10:30;11.00;99.90
43673;DHT22;41723;49.326;8.430;2022-11-15T06:13:14;11.00;99.90
43673;DHT22;41723;49.326;8.430;2022-11-15T06:15:59;11.00;99.90
43673;DHT22;41723;49.326;8.430;2022-11-15T06:18:46;11.10;99.90
43673;DHT22;41723;49.326;8.430;2022-11-15T06:21:30;11.10;99.90
43673;DHT22;41723;49.326;8.430;2022-11-15T06:24:14;11.10;99.90
43673;DHT22;41723;49.326;8.430;2022-11-15T06:26:59;11.10;99.90
43673;DHT22;41723;49.326;8.430;2022-11-15T06:29:43;11.10;99.90
43673;DHT22;41723;49.326;8.430;2022-11-15T06:32:28;11.10;99.90
43673;DHT22;41723;49.326;8.430;2022-11-15T06:35:13;11.10;99.90
43673;DHT22;41723;49.326;8.430;2022-11-15T06:38:01;11.10;99.90
43673;DHT22;41723;49.326;8.430;2022-11-15T06:40:46;11.10;99.90
43673;DHT22;41723;49.326;8.430;2022-11-15T06:43:30;11.10;99.90
43673;DHT22;41723;49.326;8.430;2022-11-15T06:46:14;11.10;99.90
43673;DHT22;41723;49.326;8.430;2022-11-15T06:48:58;11.10;99.90
43673;DHT22;41723;49.326;8.430;2022-11-15T06:51:43;11.10;99.90
43673;DHT22;41723;49.326;8.430;2022-11-15T06:54:27;11.10;99.90
43673;DHT22;41723;49.326;8.430;2022-11-15T06:57:11;11.10;99.90
43673;DHT22;41723;49.326;8.430;2022-11-15T06:59:55;11.10;99.90
43673;DHT22;41723;49.326;8.430;2022-11-15T07:02:40;11.20;99.90
43673;DHT22;41723;49.326;8.430;2022-11-15T07:05:24;11.20;99.90
43673;DHT22;41723;49.326;8.430;2022-11-15T07:08:08;11.30;99.90
43673;DHT22;41723;49.326;8.430;2022-11-15T07:10:53;11.20;99.90
43673;DHT22;41723;49.326;8.430;2022-11-15T07:13:37;11.30;99.90
43673;DHT22;41723;49.326;8.430;2022-11-15T07:16:21;11.50;99.90
43673;DHT22;41723;49.326;8.430;2022-11-15T07:19:06;11.60;99.90
43673;DHT22;41723;49.326;8.430;2022-11-15T07:21:50;11.50;99.90
43673;DHT22;41723;49.326;8.430;2022-11-15T07:24:34;11.40;99.90
43673;DHT22;41723;49.326;8.430;2022-11-15T07:27:18;11.30;99.90
43673;DHT22;41723;49.326;8.430;2022-11-15T07:30:03;11.40;99.90
43673;DHT22;41723;49.326;8.430;2022-11-15T07:32:51;11.50;99.90
43673;DHT22;41723;49.326;8.430;2022-11-15T07:35:36;11.60;99.90
43673;DHT22;41723;49.326;8.430;2022-11-15T07:38:20;11.60;99.90
43673;DHT22;41723;49.326;8.430;2022-11-15T07:41:05;11.70;99.90
43673;DHT22;41723;49.326;8.430;2022-11-15T07:43:53;11.70;99.90
43673;DHT22;41723;49.326;8.430;2022-11-15T07:46:37;11.60;99.90
43673;DHT22;41723;49.326;8.430;2022-11-15T07:49:21;11.60;99.90
43673;DHT22;41723;49.326;8.430;2022-11-15T07:52:06;11.60;99.90
43673;DHT22;41723;49.326;8.430;2022-11-15T07:54:50;11.60;99.90
43673;DHT22;41723;49.326;8.430;2022-11-15T07:57:34;11.80;99.90
43673;DHT22;41723;49.326;8.430;2022-11-15T08:00:18;11.70;99.90
43673;DHT22;41723;49.326;8.430;2022-11-15T08:03:04;11.90;99.90
43673;DHT22;41723;49.326;8.430;2022-11-15T08:05:51;11.90;99.90
43673;DHT22;41723;49.326;8.430;2022-11-15T08:08:36;11.80;99.90
43673;DHT22;41723;49.326;8.430;2022-11-15T08:11:20;11.70;99.90
43673;DHT22;41723;49.326;8.430;2022-11-15T08:14:04;11.70;99.90
43673;DHT22;41723;49.326;8.430;2022-11-15T08:16:48;11.70;99.90
43673;DHT22;41723;49.326;8.430;2022-11-15T08:19:32;11.70;99.90
43673;DHT22;41723;49.326;8.430;2022-11-15T08:22:17;11.70;99.90
43673;DHT22;41723;49.326;8.430;2022-11-15T08:25:01;11.70;99.90
43673;DHT22;41723;49.326;8.430;2022-11-15T08:27:46;11.70;99.90
43673;DHT22;41723;49.326;8.430;2022-11-15T08:30:30;11.70;99.90
43673;DHT22;41723;49.326;8.430;2022-11-15T08:33:15;11.80;99.90
43673;DHT22;41723;49.326;8.430;2022-11-15T08:35:59;11.70;99.90
43673;DHT22;41723;49.326;8.430;2022-11-15T08:38:44;11.80;99.90
43673;DHT22;41723;49.326;8.430;2022-11-15T08:41:32;11.80;99.90
43673;DHT22;41723;49.326;8.430;2022-11-15T08:44:17;11.80;99.90
43673;DHT22;41723;49.326;8.430;2022-11-15T08:47:02;11.80;99.90
43673;DHT22;41723;49.326;8.430;2022-11-15T08:49:46;11.80;99.90
43673;DHT22;41723;49.326;8.430;2022-11-15T08:52:32;11.80;99.90
43673;DHT22;41723;49.326;8.430;2022-11-15T08:55:16;11.80;99.90
43673;DHT22;41723;49.326;8.430;2022-11-15T08:58:01;11.90;99.90
43673;DHT22;41723;49.326;8.430;2022-11-15T09:00:45;11.90;99.90
43673;DHT22;41723;49.326;8.430;2022-11-15T09:03:29;12.00;99.90
43673;DHT22;41723;49.326;8.430;2022-11-15T09:06:14;12.00;99.90
43673;DHT22;41723;49.326;8.430;2022-11-15T09:08:59;12.00;99.90
43673;DHT22;41723;49.326;8.430;2022-11-15T09:11:44;12.00;99.90
43673;DHT22;41723;49.326;8.430;2022-11-15T09:14:28;12.10;99.90
43673;DHT22;41723;49.326;8.430;2022-11-15T09:17:12;12.10;99.90
43673;DHT22;41723;49.326;8.430;2022-11-15T09:19:56;12.10;99.90
43673;DHT22;41723;49.326;8.430;2022-11-15T09:22:41;12.10;99.90
43673;DHT22;41723;49.326;8.430;2022-11-15T09:25:25;12.20;99.90
43673;DHT22;41723;49.326;8.430;2022-11-15T09:28:09;12.20;99.90
43673;DHT22;41723;49.326;8.430;2022-11-15T09:31:00;12.30;99.90
43673;DHT22;41723;49.326;8.430;2022-11-15T09:33:45;12.30;99.90
43673;DHT22;41723;49.326;8.430;2022-11-15T09:36:29;12.30;99.90
43673;DHT22;41723;49.326;8.430;2022-11-15T09:39:14;12.40;99.90
43673;DHT22;41723;49.326;8.430;2022-11-15T09:45:03;12.40;99.90
43673;DHT22;41723;49.326;8.430;2022-11-15T09:50:54;12.50;99.90
43673;DHT22;41723;49.326;8.430;2022-11-15T09:53:27;12.60;99.90
43673;DHT22;41723;49.326;8.430;2022-11-15T09:56:00;12.60;99.90
43673;DHT22;41723;49.326;8.430;2022-11-15T09:58:36;12.60;99.90
43673;DHT22;41723;49.326;8.430;2022-11-15T10:01:04;12.50;99.90
43673;DHT22;41723;49.326;8.430;2022-11-15T10:03:36;12.50;99.90
43673;DHT22;41723;49.326;8.430;2022-11-15T10:06:03;12.60;99.90
43673;DHT22;41723;49.326;8.430;2022-11-15T10:11:11;12.60;99.90
43673;DHT22;41723;49.326;8.430;2022-11-15T10:13:39;12.60;99.90
43673;DHT22;41723;49.326;8.430;2022-11-15T10:21:21;12.60;99.90
43673;DHT22;41723;49.326;8.430;2022-11-15T10:23:48;12.60;99.90
43673;DHT22;41723;49.326;8.430;2022-11-15T10:26:15;12.60;99.90
43673;DHT22;41723;49.326;8.430;2022-11-15T10:28:41;12.70;99.90
43673;DHT22;41723;49.326;8.430;2022-11-15T10:31:21;12.70;99.90
43673;DHT22;41723;49.326;8.430;2022-11-15T10:33:48;12.60;99.90
43673;DHT22;41723;49.326;8.430;2022-11-15T10:36:15;12.70;99.90
43673;DHT22;41723;49.326;8.430;2022-11-15T10:41:14;12.70;99.90
43673;DHT22;41723;49.326;8.430;2022-11-15T10:43:40;12.70;99.90
43673;DHT22;41723;49.326;8.430;2022-11-15T10:46:24;12.70;99.90
43673;DHT22;41723;49.326;8.430;2022-11-15T10:48:50;12.70;99.90
43673;DHT22;41723;49.326;8.430;2022-11-15T10:51:23;12.80;99.90
43673;DHT22;41723;49.326;8.430;2022-11-15T10:53:54;12.70;99.90
43673;DHT22;41723;49.326;8.430;2022-11-15T10:56:20;12.70;99.90
43673;DHT22;41723;49.326;8.430;2022-11-15T10:58:53;12.70;99.90
43673;DHT22;41723;49.326;8.430;2022-11-15T11:01:22;12.80;99.90
43673;DHT22;41723;49.326;8.430;2022-11-15T11:04:07;12.80;99.90
43673;DHT22;41723;49.326;8.430;2022-11-15T11:06:46;12.80;99.90
43673;DHT22;41723;49.326;8.430;2022-11-15T11:09:21;12.90;99.90
43673;DHT22;41723;49.326;8.430;2022-11-15T11:11:49;12.90;99.90
43673;DHT22;41723;49.326;8.430;2022-11-15T11:14:25;12.90;99.90
43673;DHT22;41723;49.326;8.430;2022-11-15T11:22:30;13.10;99.90
43673;DHT22;41723;49.326;8.430;2022-11-15T11:27:31;13.20;99.90
43673;DHT22;41723;49.326;8.430;2022-11-15T11:30:02;13.20;99.90
43673;DHT22;41723;49.326;8.430;2022-11-15T11:35:14;13.30;99.90
43673;DHT22;41723;49.326;8.430;2022-11-15T11:37:45;13.40;99.90
43673;DHT22;41723;49.326;8.430;2022-11-15T11:45:15;13.50;99.90
43673;DHT22;41723;49.326;8.430;2022-11-15T11:48:07;13.50;99.90
43673;DHT22;41723;49.326;8.430;2022-11-15T11:50:28;13.50;99.90
43673;DHT22;41723;49.326;8.430;2022-11-15T11:52:59;13.50;99.90
43673;DHT22;41723;49.326;8.430;2022-11-15T11:55:29;13.50;99.90
43673;DHT22;41723;49.326;8.430;2022-11-15T12:00:21;13.50;99.90
43673;DHT22;41723;49.326;8.430;2022-11-15T12:05:34;13.60;99.90
43673;DHT22;41723;49.326;8.430;2022-11-15T12:08:25;13.60;99.90
43673;DHT22;41723;49.326;8.430;2022-11-15T12:10:50;13.60;99.90
43673;DHT22;41723;49.326;8.430;2022-11-15T12:13:18;13.60;99.90
43673;DHT22;41723;49.326;8.430;2022-11-15T12:15:53;13.70;99.90
43673;DHT22;41723;49.326;8.430;2022-11-15T12:18:26;13.70;99.90
43673;DHT22;41723;49.326;8.430;2022-11-15T12:21:01;13.60;99.90
43673;DHT22;41723;49.326;8.430;2022-11-15T12:23:31;13.60;99.90
43673;DHT22;41723;49.326;8.430;2022-11-15T12:26:00;13.60;99.90
43673;DHT22;41723;49.326;8.430;2022-11-15T12:30:55;13.70;99.90
43673;DHT22;41723;49.326;8.430;2022-11-15T12:36:00;13.70;99.90
43673;DHT22;41723;49.326;8.430;2022-11-15T12:41:15;13.70;99.90
43673;DHT22;41723;49.326;8.430;2022-11-15T12:43:45;13.80;99.90
43673;DHT22;41723;49.326;8.430;2022-11-15T12:46:12;13.80;99.90
43673;DHT22;41723;49.326;8.430;2022-11-15T12:51:03;13.80;99.90
43673;DHT22;41723;49.326;8.430;2022-11-15T12:53:33;13.80;99.90
43673;DHT22;41723;49.326;8.430;2022-11-15T12:58:47;13.90;99.90
43673;DHT22;41723;49.326;8.430;2022-11-15T13:07:00;13.80;99.90
43673;DHT22;41723;49.326;8.430;2022-11-15T13:13:00;13.90;99.90
43673;DHT22;41723;49.326;8.430;2022-11-15T13:14:56;13.90;99.90
43673;DHT22;41723;49.326;8.430;2022-11-15T13:19:48;13.80;99.90
43673;DHT22;41723;49.326;8.430;2022-11-15T13:22:14;13.80;99.90
43673;DHT22;41723;49.326;8.430;2022-11-15T13:25:00;13.80;99.90
43673;DHT22;41723;49.326;8.430;2022-11-15T13:27:26;13.90;99.90
43673;DHT22;41723;49.326;8.430;2022-11-15T13:29:52;13.80;99.90
43673;DHT22;41723;49.326;8.430;2022-11-15T13:32:18;13.90;99.90
43673;DHT22;41723;49.326;8.430;2022-11-15T13:34:44;13.90;99.90
43673;DHT22;41723;49.326;8.430;2022-11-15T13:39:47;13.90;99.90
43673;DHT22;41723;49.326;8.430;2022-11-15T13:42:17;14.00;99.90
43673;DHT22;41723;49.326;8.430;2022-11-15T13:44:56;13.90;99.90
43673;DHT22;41723;49.326;8.430;2022-11-15T13:47:24;13.90;99.90
43673;DHT22;41723;49.326;8.430;2022-11-15T13:49:52;14.00;99.90
43673;DHT22;41723;49.326;8.430;2022-11-15T13:52:19;14.00;99.90
43673;DHT22;41723;49.326;8.430;2022-11-15T13:54:47;14.00;99.90
43673;DHT22;41723;49.326;8.430;2022-11-15T13:57:21;14.00;99.90
43673;DHT22;41723;49.326;8.430;2022-11-15T13:59:57;13.90;99.90
43673;DHT22;41723;49.326;8.430;2022-11-15T14:02:37;14.00;99.90
43673;DHT22;41723;49.326;8.430;2022-11-15T14:05:05;14.00;99.90
43673;DHT22;41723;49.326;8.430;2022-11-15T14:07:39;14.00;99.90
43673;DHT22;41723;49.326;8.430;2022-11-15T14:10:24;14.00;99.90
43673;DHT22;41723;49.326;8.430;2022-11-15T14:12:50;14.00;99.90
43673;DHT22;41723;49.326;8.430;2022-11-15T14:15:35;14.00;99.90
43673;DHT22;41723;49.326;8.430;2022-11-15T14:18:01;14.00;99.90
43673;DHT22;41723;49.326;8.430;2022-11-15T14:20:38;13.90;99.90
43673;DHT22;41723;49.326;8.430;2022-11-15T14:25:52;13.90;99.90
43673;DHT22;41723;49.326;8.430;2022-11-15T14:30:44;13.90;99.90
43673;DHT22;41723;49.326;8.430;2022-11-15T14:33:17;13.90;99.90
43673;DHT22;41723;49.326;8.430;2022-11-15T14:35:43;13.90;99.90
43673;DHT22;41723;49.326;8.430;2022-11-15T14:38:09;13.90;99.90
43673;DHT22;41723;49.326;8.430;2022-11-15T14:40:35;13.80;99.90
43673;DHT22;41723;49.326;8.430;2022-11-15T14:43:00;13.90;99.90
43673;DHT22;41723;49.326;8.430;2022-11-15T14:45:26;13.80;99.90
43673;DHT22;41723;49.326;8.430;2022-11-15T14:48:01;13.80;99.90
43673;DHT22;41723;49.326;8.430;2022-11-15T14:50:27;13.80;99.90
43673;DHT22;41723;49.326;8.430;2022-11-15T14:52:53;13.80;99.90
43673;DHT22;41723;49.326;8.430;2022-11-15T14:55:20;13.80;99.90
43673;DHT22;41723;49.326;8.430;2022-11-15T14:57:46;13.80;99.90
43673;DHT22;41723;49.326;8.430;2022-11-15T15:00:12;13.80;99.90
43673;DHT22;41723;49.326;8.430;2022-11-15T15:02:38;13.70;99.90
43673;DHT22;41723;49.326;8.430;2022-11-15T15:07:39;13.70;99.90
43673;DHT22;41723;49.326;8.430;2022-11-15T15:10:04;13.70;99.90
43673;DHT22;41723;49.326;8.430;2022-11-15T15:12:30;13.70;99.90
43673;DHT22;41723;49.326;8.430;2022-11-15T15:14:56;13.70;99.90
43673;DHT22;41723;49.326;8.430;2022-11-15T15:17:21;13.70;99.90
43673;DHT22;41723;49.326;8.430;2022-11-15T15:19:47;13.70;99.90
43673;DHT22;41723;49.326;8.430;2022-11-15T15:22:14;13.60;99.90
43673;DHT22;41723;49.326;8.430;2022-11-15T15:24:40;13.70;99.90
43673;DHT22;41723;49.326;8.430;2022-11-15T15:27:05;13.70;99.90
43673;DHT22;41723;49.326;8.430;2022-11-15T15:29:31;13.60;99.90
43673;DHT22;41723;49.326;8.430;2022-11-15T15:31:56;13.70;99.90
43673;DHT22;41723;49.326;8.430;2022-11-15T15:34:22;13.60;99.90
43673;DHT22;41723;49.326;8.430;2022-11-15T15:36:48;13.60;99.90
43673;DHT22;41723;49.326;8.430;2022-11-15T15:39:13;13.50;99.90
43673;DHT22;41723;49.326;8.430;2022-11-15T15:41:39;13.60;99.90
43673;DHT22;41723;49.326;8.430;2022-11-15T15:44:04;13.60;99.90
43673;DHT22;41723;49.326;8.430;2022-11-15T15:46:30;13.60;99.90
43673;DHT22;41723;49.326;8.430;2022-11-15T15:48:56;13.70;99.90
43673;DHT22;41723;49.326;8.430;2022-11-15T15:51:21;13.70;99.90
43673;DHT22;41723;49.326;8.430;2022-11-15T15:53:47;13.60;99.90
43673;DHT22;41723;49.326;8.430;2022-11-15T15:56:13;13.60;99.90
43673;DHT22;41723;49.326;8.430;2022-11-15T15:58:39;13.60;99.90
43673;DHT22;41723;49.326;8.430;2022-11-15T16:01:05;13.50;99.90
43673;DHT22;41723;49.326;8.430;2022-11-15T16:03:30;13.50;99.90
43673;DHT22;41723;49.326;8.430;2022-11-15T16:05:56;13.50;99.90
43673;DHT22;41723;49.326;8.430;2022-11-15T16:08:23;13.60;99.90
43673;DHT22;41723;49.326;8.430;2022-11-15T16:10:49;13.60;99.90
43673;DHT22;41723;49.326;8.430;2022-11-15T16:13:15;13.60;99.90
43673;DHT22;41723;49.326;8.430;2022-11-15T16:15:40;13.60;99.90
43673;DHT22;41723;49.326;8.430;2022-11-15T16:18:12;13.50;99.90
43673;DHT22;41723;49.326;8.430;2022-11-15T16:23:07;13.50;99.90
43673;DHT22;41723;49.326;8.430;2022-11-15T16:25:37;13.50;99.90
43673;DHT22;41723;49.326;8.430;2022-11-15T16:28:04;13.50;99.90
43673;DHT22;41723;49.326;8.430;2022-11-15T16:30:29;13.50;99.90
43673;DHT22;41723;49.326;8.430;2022-11-15T16:32:55;13.50;99.90
43673;DHT22;41723;49.326;8.430;2022-11-15T16:35:20;13.50;99.90
43673;DHT22;41723;49.326;8.430;2022-11-15T16:37:46;13.50;99.90
43673;DHT22;41723;49.326;8.430;2022-11-15T16:40:16;13.50;99.90
43673;DHT22;41723;49.326;8.430;2022-11-15T16:42:43;13.50;99.90
43673;DHT22;41723;49.326;8.430;2022-11-15T16:45:10;13.50;99.90
43673;DHT22;41723;49.326;8.430;2022-11-15T16:47:36;13.40;99.90
43673;DHT22;41723;49.326;8.430;2022-11-15T16:50:02;13.40;99.90
43673;DHT22;41723;49.326;8.430;2022-11-15T16:52:27;13.40;99.90
43673;DHT22;41723;49.326;8.430;2022-11-15T16:54:53;13.40;99.90
43673;DHT22;41723;49.326;8.430;2022-11-15T16:57:18;13.40;99.90
43673;DHT22;41723;49.326;8.430;2022-11-15T16:59:44;13.40;99.90
43673;DHT22;41723;49.326;8.430;2022-11-15T17:02:13;13.40;99.90
43673;DHT22;41723;49.326;8.430;2022-11-15T17:04:39;13.40;99.90
43673;DHT22;41723;49.326;8.430;2022-11-15T17:07:05;13.40;99.90
43673;DHT22;41723;49.326;8.430;2022-11-15T17:09:31;13.40;99.90
43673;DHT22;41723;49.326;8.430;2022-11-15T17:11:58;13.40;99.90
43673;DHT22;41723;49.326;8.430;2022-11-15T17:14:24;13.40;99.90
43673;DHT22;41723;49.326;8.430;2022-11-15T17:16:49;13.40;99.90
43673;DHT22;41723;49.326;8.430;2022-11-15T17:19:16;13.40;99.90
43673;DHT22;41723;49.326;8.430;2022-11-15T17:21:42;13.30;99.90
43673;DHT22;41723;49.326;8.430;2022-11-15T17:24:08;13.40;99.90
43673;DHT22;41723;49.326;8.430;2022-11-15T17:26:34;13.40;99.90
43673;DHT22;41723;49.326;8.430;2022-11-15T17:29:00;13.40;99.90
43673;DHT22;41723;49.326;8.430;2022-11-15T17:31:25;13.40;99.90
43673;DHT22;41723;49.326;8.430;2022-11-15T17:33:51;13.40;99.90
43673;DHT22;41723;49.326;8.430;2022-11-15T17:36:17;13.40;99.90
43673;DHT22;41723;49.326;8.430;2022-11-15T17:38:42;13.30;99.90
43673;DHT22;41723;49.326;8.430;2022-11-15T17:41:09;13.40;99.90
43673;DHT22;41723;49.326;8.430;2022-11-15T17:43:36;13.40;99.90
43673;DHT22;41723;49.326;8.430;2022-11-15T17:46:10;13.40;99.90
43673;DHT22;41723;49.326;8.430;2022-11-15T17:48:36;13.30;99.90
43673;DHT22;41723;49.326;8.430;2022-11-15T17:51:03;13.30;99.90
43673;DHT22;41723;49.326;8.430;2022-11-15T17:53:34;13.40;99.90
43673;DHT22;41723;49.326;8.430;2022-11-15T17:56:03;13.30;99.90
43673;DHT22;41723;49.326;8.430;2022-11-15T17:58:30;13.40;99.90
43673;DHT22;41723;49.326;8.430;2022-11-15T18:01:03;13.40;99.90
43673;DHT22;41723;49.326;8.430;2022-11-15T18:03:31;13.30;99.90
43673;DHT22;41723;49.326;8.430;2022-11-15T18:05:57;13.40;99.90
43673;DHT22;41723;49.326;8.430;2022-11-15T18:08:22;13.40;99.90
43673;DHT22;41723;49.326;8.430;2022-11-15T18:10:48;13.40;99.90
43673;DHT22;41723;49.326;8.430;2022-11-15T18:13:14;13.40;99.90
43673;DHT22;41723;49.326;8.430;2022-11-15T18:15:39;13.30;99.90
43673;DHT22;41723;49.326;8.430;2022-11-15T18:18:05;13.40;99.90
43673;DHT22;41723;49.326;8.430;2022-11-15T18:20:30;13.30;99.90